createdAt,value
2022-09-05T00:01:27.511Z,11.45
2022-09-05T00:04:25.112Z,11.82
2022-09-05T00:07:36.049Z,12.30
2022-09-05T00:10:25.807Z,12.68
2022-09-05T00:13:06.916Z,12.25
2022-09-05T00:15:43.659Z,12.07
2022-09-05T00:20:53.838Z,11.43
2022-09-05T00:24:32.401Z,11.63
2022-09-05T00:25:32.321Z,11.68
2022-09-05T00:28:28.805Z,12.10
2022-09-05T00:31:55.599Z,11.00
2022-09-05T00:34:50.922Z,11.00
2022-09-05T00:37:27.502Z,8.88
2022-09-05T00:40:18.687Z,9.77
2022-09-05T00:42:50.545Z,11.15
2022-09-05T00:45:37.926Z,11.60
2022-09-05T00:48:08.192Z,11.15
2022-09-05T00:50:58.434Z,12.27
2022-09-05T00:53:55.293Z,11.63
2022-09-05T00:56:59.299Z,11.02
2022-09-05T00:59:58.548Z,10.48
2022-09-05T01:02:51.136Z,11.00
2022-09-05T01:05:46.881Z,11.43
2022-09-05T01:08:34.493Z,11.88
2022-09-05T01:11:06.613Z,11.35
2022-09-05T01:13:48.554Z,11.75
2022-09-05T01:16:28.692Z,11.65
2022-09-05T01:19:40.670Z,10.70
2022-09-05T01:22:14.020Z,10.65
2022-09-05T01:25:02.777Z,10.75
2022-09-05T01:28:15.418Z,11.02
2022-09-05T01:30:37.425Z,10.68
2022-09-05T01:33:25.203Z,11.30
2022-09-05T01:36:07.188Z,10.68
2022-09-05T01:39:53.598Z,9.90
2022-09-05T01:42:08.913Z,10.00
2022-09-05T01:45:21.109Z,10.27
2022-09-05T01:48:19.609Z,10.60
2022-09-05T01:51:28.423Z,9.35
2022-09-05T01:54:25.127Z,8.60
2022-09-05T01:56:54.030Z,8.85
2022-09-05T01:59:38.026Z,8.57
2022-09-05T02:02:16.263Z,8.27
2022-09-05T02:04:52.691Z,7.53
2022-09-05T02:07:38.081Z,8.10
2022-09-05T02:10:31.413Z,8.07
2022-09-05T02:13:05.307Z,7.88
2022-09-05T02:15:53.849Z,8.15
2022-09-05T02:18:53.203Z,8.02
2022-09-05T02:21:56.166Z,8.02
2022-09-05T02:24:36.775Z,7.75
2022-09-05T02:27:40.272Z,8.95
2022-09-05T02:30:23.343Z,9.30
2022-09-05T02:33:17.009Z,9.20
2022-09-05T02:35:56.102Z,8.13
2022-09-05T02:41:17.164Z,9.57
2022-09-05T02:45:06.151Z,8.77
2022-09-05T02:45:20.465Z,7.68
2022-09-05T02:48:15.807Z,7.38
2022-09-05T02:57:24.512Z,8.30
2022-09-05T02:57:33.867Z,7.85
2022-09-05T02:57:36.528Z,8.20
2022-09-05T02:59:48.742Z,7.78
2022-09-05T03:02:28.274Z,8.25
2022-09-05T03:05:10.120Z,8.55
2022-09-05T03:07:46.545Z,8.10
2022-09-05T03:10:54.640Z,8.00
2022-09-05T03:13:54.034Z,9.13
2022-09-05T03:16:46.913Z,10.23
2022-09-05T03:19:46.467Z,8.98
2022-09-05T03:22:43.584Z,8.45
2022-09-05T03:25:19.695Z,9.40
2022-09-05T03:28:07.031Z,7.78
2022-09-05T03:31:06.211Z,8.35
2022-09-05T03:33:33.664Z,8.05
2022-09-05T03:36:16.728Z,7.45
2022-09-05T03:39:31.138Z,8.55
2022-09-05T03:42:14.787Z,8.30
2022-09-05T03:45:06.997Z,7.38
2022-09-05T03:47:52.767Z,8.00
2022-09-05T03:53:29.417Z,8.07
2022-09-05T03:57:28.491Z,8.80
2022-09-05T03:57:33.711Z,8.43
2022-09-05T04:00:09.725Z,8.48
2022-09-05T04:08:10.479Z,8.68
2022-09-05T04:08:20.389Z,8.50
2022-09-05T04:08:45.627Z,8.48
2022-09-05T04:11:18.243Z,8.43
2022-09-05T04:13:54.223Z,9.45
2022-09-05T04:16:24.832Z,9.18
2022-09-05T04:19:13.677Z,8.40
2022-09-05T04:22:11.607Z,8.93
2022-09-05T04:24:58.131Z,8.60
2022-09-05T04:27:58.367Z,9.10
2022-09-05T04:30:38.300Z,8.68
2022-09-05T04:33:22.173Z,8.88
2022-09-05T04:36:28.822Z,8.52
2022-09-05T04:39:17.917Z,9.07
2022-09-05T04:42:06.250Z,9.07
2022-09-05T04:44:44.972Z,8.68
2022-09-05T04:47:40.217Z,8.85
2022-09-05T04:50:11.930Z,8.60
2022-09-05T04:53:07.030Z,9.32
2022-09-05T04:55:50.771Z,9.40
2022-09-05T04:59:10.252Z,9.50
2022-09-05T05:06:11.233Z,9.23
2022-09-05T05:06:11.743Z,9.85
2022-09-05T05:07:26.468Z,9.55
2022-09-05T05:11:22.885Z,9.90
2022-09-05T05:17:25.355Z,11.43
2022-09-05T05:18:12.956Z,12.15
2022-09-05T05:19:02.967Z,11.70
2022-09-05T05:21:34.168Z,10.20
2022-09-05T05:24:10.645Z,11.18
2022-09-05T05:26:48.310Z,9.45
2022-09-05T05:29:48.178Z,9.65
2022-09-05T05:32:45.665Z,9.40
2022-09-05T05:35:48.054Z,9.73
2022-09-05T05:38:32.252Z,9.00
2022-09-05T05:41:18.716Z,8.52
2022-09-05T05:43:47.717Z,8.23
2022-09-05T05:46:28.354Z,8.00
2022-09-05T05:49:08.160Z,8.38
2022-09-05T05:52:00.893Z,9.05
2022-09-05T05:54:38.429Z,11.70
2022-09-05T05:57:35.201Z,11.63
2022-09-05T06:00:14.982Z,10.60
2022-09-05T06:03:25.336Z,11.82
2022-09-05T06:06:08.021Z,12.90
2022-09-05T06:11:15.999Z,12.23
2022-09-05T06:15:04.723Z,9.90
2022-09-05T06:15:27.722Z,8.82
2022-09-05T06:18:20.357Z,8.37
2022-09-05T06:22:06.423Z,9.20
2022-09-05T06:24:28.544Z,8.57
2022-09-05T06:27:02.042Z,7.45
2022-09-05T06:30:01.873Z,7.57
2022-09-05T06:33:02.961Z,6.05
2022-09-05T06:36:01.211Z,5.97
2022-09-05T06:41:22.958Z,6.00
2022-09-05T06:43:53.021Z,6.78
2022-09-05T06:47:23.050Z,7.57
2022-09-05T06:49:46.026Z,8.02
2022-09-05T06:52:29.526Z,8.43
2022-09-05T06:55:31.342Z,9.18
2022-09-05T06:58:17.734Z,8.65
2022-09-05T07:00:47.909Z,9.52
2022-09-05T07:03:39.468Z,17.93
2022-09-05T07:06:07.671Z,7.82
2022-09-05T07:08:54.192Z,9.95
2022-09-05T07:11:28.470Z,8.88
2022-09-05T07:14:09.065Z,5.95
2022-09-05T07:17:02.708Z,6.97
2022-09-05T07:20:03.797Z,5.97
2022-09-05T07:22:48.924Z,7.03
2022-09-05T07:25:26.383Z,6.90
2022-09-05T07:28:26.287Z,7.63
2022-09-05T07:31:03.747Z,6.25
2022-09-05T07:33:32.156Z,8.52
2022-09-05T07:36:09.227Z,6.47
2022-09-05T07:38:54.898Z,6.50
2022-09-05T07:41:39.705Z,6.90
2022-09-05T07:44:15.759Z,9.00
2022-09-05T07:46:49.102Z,4.93
2022-09-05T07:49:20.951Z,3.72
2022-09-05T07:56:46.362Z,3.60
2022-09-05T07:57:12.978Z,4.28
2022-09-05T08:00:29.335Z,3.60
2022-09-05T08:03:09.775Z,3.78
2022-09-05T08:05:48.194Z,3.42
2022-09-05T08:08:25.573Z,3.95
2022-09-05T08:11:23.361Z,3.15
2022-09-05T08:14:09.066Z,3.60
2022-09-05T08:16:47.044Z,3.30
2022-09-05T08:19:54.432Z,2.97
2022-09-05T08:22:30.901Z,2.83
2022-09-05T08:25:17.201Z,2.80
2022-09-05T08:28:10.979Z,3.40
2022-09-05T08:30:51.191Z,3.30
2022-09-05T08:33:25.115Z,2.67
2022-09-05T08:36:07.151Z,2.58
2022-09-05T08:38:40.601Z,2.88
2022-09-05T08:41:23.735Z,2.67
2022-09-05T08:46:42.015Z,2.78
2022-09-05T08:47:49.458Z,2.90
2022-09-05T08:50:26.804Z,2.40
2022-09-05T08:53:18.700Z,2.90
2022-09-05T08:56:22.856Z,2.85
2022-09-05T08:59:32.128Z,2.30
2022-09-05T09:02:46.620Z,2.63
2022-09-05T09:05:14.906Z,2.90
2022-09-05T09:08:08.094Z,3.03
2022-09-05T09:11:05.071Z,2.90
2022-09-05T09:14:29.603Z,2.60
2022-09-05T09:17:08.074Z,2.40
2022-09-05T09:19:48.726Z,2.47
2022-09-05T09:22:40.376Z,2.38
2022-09-05T09:25:16.793Z,2.25
2022-09-05T09:28:48.959Z,1.77
2022-09-05T09:31:05.807Z,1.73
2022-09-05T09:33:43.595Z,1.83
2022-09-05T09:36:38.907Z,1.58
2022-09-05T09:39:38.231Z,1.55
2022-09-05T09:42:37.413Z,1.50
2022-09-05T09:45:28.310Z,1.70
2022-09-05T09:48:24.292Z,1.85
2022-09-05T09:51:29.330Z,1.67
2022-09-05T09:54:03.319Z,1.85
2022-09-05T09:56:53.635Z,1.63
2022-09-05T09:59:53.886Z,1.80
2022-09-05T10:03:26.975Z,1.00
2022-09-05T10:10:24.724Z,1.48
2022-09-05T10:10:58.387Z,1.60
2022-09-05T10:12:01.300Z,1.15
2022-09-05T10:14:50.767Z,1.58
2022-09-05T10:17:24.460Z,1.35
2022-09-05T10:20:10.351Z,1.25
2022-09-05T10:23:00.282Z,1.42
2022-09-05T10:26:06.322Z,1.10
2022-09-05T10:28:45.074Z,1.00
2022-09-05T10:33:06.626Z,0.80
2022-09-05T10:35:14.710Z,1.20
2022-09-05T10:37:15.091Z,0.85
2022-09-05T10:40:02.448Z,0.80
2022-09-05T10:42:59.771Z,1.05
2022-09-05T10:45:42.173Z,1.10
2022-09-05T10:50:52.204Z,0.80
2022-09-05T10:53:39.972Z,0.88
2022-09-05T10:56:22.845Z,0.90
2022-09-05T11:00:38.421Z,0.70
2022-09-05T11:02:30.157Z,0.60
2022-09-05T11:05:12.134Z,0.73
2022-09-05T11:07:42.290Z,0.63
2022-09-05T11:10:31.826Z,0.80
2022-09-05T11:13:17.081Z,0.70
2022-09-05T11:16:04.253Z,0.60
2022-09-05T11:18:56.289Z,0.82
2022-09-05T11:21:45.759Z,0.85
2022-09-05T11:24:35.941Z,0.70
2022-09-05T11:27:24.811Z,0.90
2022-09-05T11:30:03.308Z,0.95
2022-09-05T11:37:41.652Z,1.50
2022-09-05T11:39:52.067Z,0.70
2022-09-05T11:39:53.050Z,0.88
2022-09-05T11:41:57.761Z,0.97
2022-09-05T11:44:40.195Z,1.00
2022-09-05T11:47:27.946Z,1.40
2022-09-05T11:50:39.370Z,1.00
2022-09-05T11:53:43.870Z,0.90
2022-09-05T11:56:28.838Z,0.90
2022-09-05T11:59:15.295Z,0.90
2022-09-05T12:02:24.886Z,1.13
2022-09-05T12:05:50.818Z,0.95
2022-09-05T12:08:24.371Z,0.77
2022-09-05T12:11:17.015Z,0.80
2022-09-05T12:13:51.304Z,0.55
2022-09-05T12:16:30.483Z,0.63
2022-09-05T12:19:19.779Z,0.65
2022-09-05T12:22:08.799Z,1.02
2022-09-05T12:27:39.428Z,0.85
2022-09-05T12:29:32.586Z,1.00
2022-09-05T12:32:30.592Z,0.90
2022-09-05T12:36:11.451Z,0.77
2022-09-05T12:40:00.919Z,0.77
2022-09-05T12:44:36.294Z,0.60
2022-09-05T12:46:46.622Z,0.70
2022-09-05T12:49:47.441Z,0.90
2022-09-05T12:52:35.726Z,0.57
2022-09-05T12:55:16.739Z,0.52
2022-09-05T13:02:55.478Z,0.50
2022-09-05T13:03:06.458Z,0.70
2022-09-05T13:03:53.354Z,0.60
2022-09-05T13:06:33.381Z,0.65
2022-09-05T13:09:21.435Z,0.82
2022-09-05T13:14:54.036Z,0.40
2022-09-05T13:15:24.103Z,1.10
2022-09-05T13:18:10.506Z,0.80
2022-09-05T13:20:45.755Z,1.15
2022-09-05T13:23:24.767Z,1.50
2022-09-05T13:26:08.080Z,0.82
2022-09-05T13:28:52.868Z,1.35
2022-09-05T13:38:03.760Z,1.15
2022-09-05T13:38:15.190Z,0.90
2022-09-05T13:38:17.981Z,1.27
2022-09-05T13:40:31.845Z,0.90
2022-09-05T13:43:08.581Z,0.80
2022-09-05T13:45:51.586Z,0.70
2022-09-05T13:51:38.186Z,0.70
2022-09-05T13:54:16.533Z,0.77
2022-09-05T13:57:07.405Z,0.88
2022-09-05T13:59:42.283Z,0.88
2022-09-05T14:02:28.363Z,0.60
2022-09-05T14:05:21.193Z,0.70
2022-09-05T14:08:17.982Z,0.70
2022-09-05T14:11:02.362Z,0.70
2022-09-05T14:13:45.045Z,0.90
2022-09-05T14:16:19.101Z,0.85
2022-09-05T14:19:07.567Z,0.90
2022-09-05T14:21:39.047Z,0.90
2022-09-05T14:24:27.435Z,0.80
2022-09-05T14:26:59.073Z,1.10
2022-09-05T14:29:49.910Z,1.02
2022-09-05T14:37:36.554Z,0.90
2022-09-05T14:37:49.872Z,1.30
2022-09-05T14:38:25.639Z,1.10
2022-09-05T14:41:30.244Z,0.80
2022-09-05T14:44:08.402Z,0.70
2022-09-05T14:47:02.580Z,0.90
2022-09-05T14:49:42.059Z,0.75
2022-09-05T14:52:29.880Z,0.60
2022-09-05T15:02:46.362Z,0.93
2022-09-05T15:02:48.564Z,0.77
2022-09-05T15:06:38.724Z,0.80
2022-09-05T15:11:41.093Z,0.77
2022-09-05T15:12:31.322Z,1.30
2022-09-05T15:15:15.709Z,1.30
2022-09-05T15:18:11.383Z,1.60
2022-09-05T15:20:44.799Z,1.67
2022-09-05T15:23:28.632Z,1.00
2022-09-05T15:26:31.072Z,0.90
2022-09-05T15:29:14.512Z,0.88
2022-09-05T15:31:42.684Z,0.80
2022-09-05T15:34:26.703Z,1.50
2022-09-05T15:36:55.799Z,1.80
2022-09-05T15:39:36.631Z,1.50
2022-09-05T15:42:17.105Z,1.60
2022-09-05T15:45:08.737Z,1.30
2022-09-05T15:47:34.075Z,1.23
2022-09-05T15:50:07.430Z,0.95
2022-09-05T15:52:54.905Z,1.00
2022-09-05T15:55:27.441Z,0.98
2022-09-05T15:58:05.371Z,1.20
2022-09-05T16:00:55.669Z,1.30
2022-09-05T16:09:21.812Z,1.20
2022-09-05T16:10:45.803Z,1.40
2022-09-05T16:10:48.951Z,1.10
2022-09-05T16:12:37.095Z,1.35
2022-09-05T16:16:33.715Z,1.00
2022-09-05T16:23:34.269Z,1.67
2022-09-05T16:23:34.960Z,1.35
2022-09-05T16:24:05.629Z,2.20
2022-09-05T16:26:40.117Z,2.70
2022-09-05T16:29:13.326Z,3.08
2022-09-05T16:31:48.331Z,5.40
2022-09-05T16:34:29.552Z,5.53
2022-09-05T16:37:13.195Z,5.30
2022-09-05T16:39:53.186Z,8.15
2022-09-05T16:42:46.849Z,10.27
2022-09-05T16:45:46.107Z,7.95
2022-09-05T16:48:36.558Z,7.10
2022-09-05T16:51:13.515Z,5.72
2022-09-05T16:53:59.071Z,6.00
2022-09-05T16:56:35.065Z,6.20
2022-09-05T16:59:24.626Z,6.85
2022-09-05T17:02:07.393Z,5.72
2022-09-05T17:04:56.345Z,14.55
2022-09-05T17:08:14.159Z,16.23
2022-09-05T17:10:50.746Z,11.38
2022-09-05T17:13:34.486Z,7.03
2022-09-05T17:16:03.997Z,6.35
2022-09-05T17:18:37.209Z,5.60
2022-09-05T17:21:09.942Z,6.07
2022-09-05T17:29:15.248Z,7.40
2022-09-05T17:29:41.139Z,6.57
2022-09-05T17:32:21.270Z,9.10
2022-09-05T17:35:17.335Z,9.30
2022-09-05T17:38:12.153Z,12.50
2022-09-05T17:40:42.944Z,20.25
2022-09-05T17:43:28.364Z,12.13
2022-09-05T17:46:23.767Z,8.13
2022-09-05T17:49:18.698Z,13.32
2022-09-05T17:52:02.248Z,12.38
2022-09-05T17:54:32.092Z,10.70
2022-09-05T17:57:28.446Z,8.73
2022-09-05T17:59:59.784Z,6.50
2022-09-05T18:02:32.040Z,9.90
2022-09-05T18:05:01.404Z,6.80
2022-09-05T18:07:29.470Z,7.68
2022-09-05T18:13:31.827Z,8.02
2022-09-05T18:16:00.164Z,8.25
2022-09-05T18:18:55.917Z,9.20
2022-09-05T18:21:25.919Z,11.45
2022-09-05T18:24:12.039Z,13.73
2022-09-05T18:26:48.818Z,19.88
2022-09-05T18:29:57.606Z,20.73
2022-09-05T18:32:38.418Z,29.60
2022-09-05T18:35:29.265Z,25.17
2022-09-05T18:38:05.334Z,35.22
2022-09-05T18:40:43.871Z,20.77
2022-09-05T18:43:30.143Z,10.68
2022-09-05T18:46:05.272Z,11.02
2022-09-05T18:49:15.920Z,9.65
2022-09-05T18:51:57.841Z,13.68
2022-09-05T18:54:29.532Z,18.80
2022-09-05T18:57:22.538Z,19.13
2022-09-05T18:59:53.994Z,17.85
2022-09-05T19:02:51.186Z,16.25
2022-09-05T19:05:28.499Z,13.88
2022-09-05T19:07:59.779Z,13.48
2022-09-05T19:10:34.918Z,12.23
2022-09-05T19:13:28.704Z,14.23
2022-09-05T19:16:42.867Z,13.45
2022-09-05T19:19:07.367Z,12.52
2022-09-05T19:21:46.545Z,11.40
2022-09-05T19:24:33.082Z,8.57
2022-09-05T19:28:09.707Z,7.95
2022-09-05T19:36:45.283Z,6.90
2022-09-05T19:37:08.547Z,6.90
2022-09-05T19:37:12.860Z,7.18
2022-09-05T19:41:38.252Z,5.25
2022-09-05T19:47:25.642Z,6.55
2022-09-05T19:47:49.092Z,8.00
2022-09-05T19:47:55.653Z,9.65
2022-09-05T19:50:25.318Z,9.70
2022-09-05T19:53:04.055Z,10.93
2022-09-05T19:55:37.999Z,9.68
2022-09-05T19:58:19.225Z,8.48
2022-09-05T20:01:00.433Z,9.57
2022-09-05T20:03:34.582Z,11.38
2022-09-05T20:06:29.654Z,8.25
2022-09-05T20:09:14.749Z,8.35
2022-09-05T20:11:47.578Z,7.65
2022-09-05T20:14:18.072Z,7.50
2022-09-05T20:16:46.618Z,7.75
2022-09-05T20:19:29.284Z,7.78
2022-09-05T20:22:10.100Z,7.72
2022-09-05T20:24:51.112Z,8.50
2022-09-05T20:27:19.151Z,8.68
2022-09-05T20:30:01.688Z,7.97
2022-09-05T20:32:39.507Z,8.45
2022-09-05T20:42:41.422Z,7.68
2022-09-05T20:43:28.034Z,6.25
2022-09-05T20:43:31.023Z,6.60
2022-09-05T20:44:22.591Z,6.20
2022-09-05T20:50:26.037Z,6.57
2022-09-05T20:54:19.246Z,5.85
2022-09-05T20:54:28.320Z,8.40
2022-09-05T20:55:41.317Z,7.88
2022-09-05T20:58:21.059Z,7.18
2022-09-05T21:01:20.441Z,5.30
2022-09-05T21:03:53.543Z,5.32
2022-09-05T21:06:22.809Z,5.28
2022-09-05T21:08:52.484Z,6.05
2022-09-05T21:11:30.326Z,6.28
2022-09-05T21:14:02.599Z,6.85
2022-09-05T21:16:37.696Z,5.47
2022-09-05T21:19:05.222Z,4.47
2022-09-05T21:21:34.927Z,5.43
2022-09-05T21:24:17.922Z,5.95
2022-09-05T21:26:50.131Z,5.43
2022-09-05T21:29:27.570Z,5.78
2022-09-05T21:32:02.527Z,5.30
2022-09-05T21:34:45.088Z,5.40
2022-09-05T21:37:15.685Z,3.90
2022-09-05T21:39:57.178Z,4.57
2022-09-05T21:47:33.355Z,4.20
2022-09-05T21:47:39.037Z,4.38
2022-09-05T21:48:08.481Z,4.38
2022-09-05T21:50:45.877Z,4.68
2022-09-05T21:59:21.069Z,3.90
2022-09-05T21:59:22.148Z,4.07
2022-09-05T22:02:07.307Z,3.67
2022-09-05T22:04:40.900Z,4.50
2022-09-05T22:07:16.379Z,4.40
2022-09-05T22:09:58.386Z,4.63
2022-09-05T22:12:31.386Z,6.45
2022-09-05T22:15:07.286Z,8.98
2022-09-05T22:17:47.326Z,14.60
2022-09-05T22:20:17.069Z,11.40
2022-09-05T22:22:56.140Z,8.30
2022-09-05T22:25:32.104Z,7.50
2022-09-05T22:28:06.770Z,10.48
2022-09-05T22:30:39.382Z,7.95
2022-09-05T22:33:08.033Z,8.77
2022-09-05T22:35:37.248Z,8.73
2022-09-05T22:38:12.430Z,9.32
2022-09-05T22:40:41.601Z,5.97
2022-09-05T22:43:10.716Z,6.05
2022-09-05T22:45:41.610Z,6.63
2022-09-05T22:48:11.354Z,6.90
2022-09-05T22:50:39.768Z,5.60
2022-09-05T22:53:08.756Z,6.57
2022-09-05T22:55:42.018Z,7.65
2022-09-05T22:58:12.319Z,7.05
2022-09-05T23:00:40.109Z,7.35
2022-09-05T23:03:07.844Z,5.28
2022-09-05T23:05:35.514Z,4.78
2022-09-05T23:08:04.913Z,5.82
2022-09-05T23:10:33.173Z,5.13
2022-09-05T23:13:08.580Z,5.50
2022-09-05T23:15:36.773Z,5.40
2022-09-05T23:18:05.050Z,6.53
2022-09-05T23:20:33.166Z,6.15
2022-09-05T23:23:04.979Z,5.40
2022-09-05T23:25:33.596Z,4.88
2022-09-05T23:28:06.930Z,5.28
2022-09-05T23:30:38.964Z,4.68
2022-09-05T23:33:08.229Z,5.03
2022-09-05T23:35:36.721Z,5.80
2022-09-05T23:38:09.255Z,5.38
2022-09-05T23:40:36.719Z,5.55
2022-09-05T23:43:05.527Z,6.25
2022-09-05T23:45:33.064Z,5.35
2022-09-05T23:48:00.673Z,5.13
2022-09-05T23:50:28.842Z,4.93
2022-09-05T23:52:56.291Z,5.30
2022-09-05T23:55:23.909Z,4.90
2022-09-05T23:57:57.379Z,5.43
